Time,TemperatureF,DewpointF,PressureIn,WindDirection,WindDirectionDegrees,WindSpeedMPH,WindSpeedGustMPH,Humidity,HourlyPrecipIn,Conditions,Clouds,dailyrainin,SoftwareType,DateUTC
2013-01-09 00:00:00,46.9,41.4,30.44,NW,309,2.0,3.0,81,0.00,,---,0.00,VWS V14.01,2013-01-09 05:00:00,
2013-01-09 00:05:00,47.1,41.6,30.44,WSW,248,2.0,3.0,81,0.00,,---,0.00,VWS V14.01,2013-01-09 05:05:00,
2013-01-09 00:10:00,47.2,41.7,30.44,WSW,247,1.0,1.0,81,0.00,,---,0.00,VWS V14.01,2013-01-09 05:10:00,
2013-01-09 00:15:00,46.9,41.4,30.44,NE,36,0.0,0.0,81,0.00,,---,0.00,VWS V14.01,2013-01-09 05:15:00,
2013-01-09 00:20:00,46.8,41.6,30.44,NNW,336,1.0,1.0,82,0.00,,---,0.00,VWS V14.01,2013-01-09 05:20:00,
2013-01-09 00:25:00,46.9,41.4,30.44,NNW,337,0.0,0.0,81,0.00,,---,0.00,VWS V14.01,2013-01-09 05:25:00,
2013-01-09 00:30:00,46.7,41.2,30.44,NNW,337,0.0,0.0,81,0.00,,---,0.00,VWS V14.01,2013-01-09 05:30:00,
2013-01-09 00:35:00,46.5,41.3,30.44,NNW,336,1.0,1.0,82,0.00,,---,0.00,VWS V14.01,2013-01-09 05:35:00,
2013-01-09 00:40:00,46.4,41.2,30.43,ESE,123,2.0,2.0,82,0.00,,---,0.00,VWS V14.01,2013-01-09 05:40:00,
2013-01-09 00:45:00,46.5,41.3,30.43,SE,135,1.0,1.0,82,0.00,,---,0.00,VWS V14.01,2013-01-09 05:45:00,
2013-01-09 00:50:00,45.9,41.0,30.44,West,270,2.0,2.0,83,0.00,,---,0.00,VWS V14.01,2013-01-09 05:50:00,
2013-01-09 00:55:00,45.5,41.0,30.44,WNW,287,3.0,3.0,84,0.00,,---,0.00,VWS V14.01,2013-01-09 05:55:00,
2013-01-09 01:00:00,45.4,40.9,30.43,West,270,0.0,0.0,84,0.00,,---,0.00,VWS V14.01,2013-01-09 06:00:00,
2013-01-09 01:05:00,45.3,40.8,30.43,West,270,1.0,1.0,84,0.00,,---,0.00,VWS V14.01,2013-01-09 06:05:00,
2013-01-09 01:10:00,45.0,40.5,30.42,East,97,0.0,0.0,84,0.00,,---,0.00,VWS V14.01,2013-01-09 06:10:00,
2013-01-09 01:15:00,44.8,40.6,30.42,East,97,0.0,0.0,85,0.00,,---,0.00,VWS V14.01,2013-01-09 06:15:00,
2013-01-09 01:20:00,44.8,40.9,30.42,East,97,1.0,1.0,86,0.00,,---,0.00,VWS V14.01,2013-01-09 06:20:00,
2013-01-09 01:25:00,44.9,40.7,30.42,East,97,0.0,0.0,85,0.00,,---,0.00,VWS V14.01,2013-01-09 06:25:00,
2013-01-09 01:30:00,44.7,40.5,30.42,East,97,0.0,0.0,85,0.00,,---,0.00,VWS V14.01,2013-01-09 06:30:00,
2013-01-09 01:35:00,44.4,40.2,30.42,East,97,0.0,0.0,85,0.00,,---,0.00,VWS V14.01,2013-01-09 06:35:00,
2013-01-09 01:40:00,44.2,40.3,30.42,East,97,0.0,0.0,86,0.00,,---,0.00,VWS V14.01,2013-01-09 06:40:00,
2013-01-09 01:45:00,44.0,40.1,30.42,East,97,0.0,0.0,86,0.00,,---,0.00,VWS V14.01,2013-01-09 06:45:00,
2013-01-09 01:50:00,43.8,40.2,30.42,East,97,0.0,0.0,87,0.00,,---,0.00,VWS V14.01,2013-01-09 06:50:00,
2013-01-09 01:55:00,44.1,40.8,30.42,East,97,0.0,0.0,88,0.00,,---,0.00,VWS V14.01,2013-01-09 06:55:00,
2013-01-09 02:00:00,44.5,40.9,30.42,East,97,0.0,0.0,87,0.00,,---,0.00,VWS V14.01,2013-01-09 07:00:00,
2013-01-09 02:05:00,44.7,40.8,30.42,East,97,0.0,0.0,86,0.00,,---,0.00,VWS V14.01,2013-01-09 07:05:00,
2013-01-09 02:10:00,44.6,40.7,30.42,East,97,0.0,0.0,86,0.00,,---,0.00,VWS V14.01,2013-01-09 07:10:00,
2013-01-09 02:15:00,44.2,40.3,30.42,East,97,0.0,0.0,86,0.00,,---,0.00,VWS V14.01,2013-01-09 07:15:00,
2013-01-09 02:20:00,43.6,39.7,30.42,East,97,0.0,0.0,86,0.00,,---,0.00,VWS V14.01,2013-01-09 07:20:00,
2013-01-09 02:25:00,43.1,39.5,30.42,East,97,0.0,0.0,87,0.00,,---,0.00,VWS V14.01,2013-01-09 07:25:00,
2013-01-09 02:30:00,42.8,39.5,30.42,East,97,0.0,0.0,88,0.00,,---,0.00,VWS V14.01,2013-01-09 07:30:00,
2013-01-09 02:35:00,42.7,39.7,30.43,East,97,0.0,0.0,89,0.00,,---,0.00,VWS V14.01,2013-01-09 07:35:00,
2013-01-09 02:40:00,42.7,39.7,30.43,East,97,0.0,0.0,89,0.00,,---,0.00,VWS V14.01,2013-01-09 07:40:00,
2013-01-09 02:45:00,42.9,39.9,30.43,East,97,0.0,0.0,89,0.00,,---,0.00,VWS V14.01,2013-01-09 07:45:00,
2013-01-09 02:50:00,43.2,40.2,30.43,East,96,0.0,0.0,89,0.00,,---,0.00,VWS V14.01,2013-01-09 07:50:00,
2013-01-09 02:55:00,43.2,40.2,30.44,East,97,0.0,0.0,89,0.00,,---,0.00,VWS V14.01,2013-01-09 07:55:00,
2013-01-09 03:00:00,43.0,40.0,30.44,NNW,332,1.0,1.0,89,0.00,,---,0.00,VWS V14.01,2013-01-09 08:00:00,
2013-01-09 03:05:00,42.4,39.1,30.45,NW,313,1.0,1.0,88,0.00,,---,0.00,VWS V14.01,2013-01-09 08:05:00,
2013-01-09 03:10:00,42.2,39.5,30.45,NW,313,1.0,1.0,90,0.00,,---,0.00,VWS V14.01,2013-01-09 08:10:00,
2013-01-09 03:15:00,42.0,39.0,30.45,NW,313,1.0,1.0,89,0.00,,---,0.00,VWS V14.01,2013-01-09 08:15:00,
2013-01-09 03:20:00,42.0,39.6,30.45,NW,313,1.0,1.0,91,0.00,,---,0.00,VWS V14.01,2013-01-09 08:20:00,
2013-01-09 03:25:00,42.3,39.9,30.45,NW,312,1.0,1.0,91,0.00,,---,0.00,VWS V14.01,2013-01-09 08:25:00,
2013-01-09 03:30:00,42.4,39.7,30.45,NW,313,0.0,0.0,90,0.00,,---,0.00,VWS V14.01,2013-01-09 08:30:00,
2013-01-09 03:35:00,42.4,39.7,30.44,NW,313,1.0,1.0,90,0.00,,---,0.00,VWS V14.01,2013-01-09 08:35:00,
2013-01-09 03:40:00,42.6,39.9,30.44,NNW,340,1.0,1.0,90,0.00,,---,0.00,VWS V14.01,2013-01-09 08:40:00,
2013-01-09 03:45:00,42.8,39.8,30.44,North,11,1.0,1.0,89,0.00,,---,0.00,VWS V14.01,2013-01-09 08:45:00,
2013-01-09 03:50:00,43.1,40.1,30.44,NNE,19,1.0,1.0,89,0.00,,---,0.00,VWS V14.01,2013-01-09 08:50:00,
2013-01-09 03:55:00,43.5,40.5,30.44,NNE,19,0.0,0.0,89,0.00,,---,0.00,VWS V14.01,2013-01-09 08:55:00,
2013-01-09 03:59:00,43.5,40.2,30.44,NNE,19,0.0,0.0,88,0.00,,---,0.00,VWS V14.01,2013-01-09 08:59:00,
2013-01-09 04:04:00,43.6,40.3,30.44,NNE,18,1.0,1.0,88,0.00,,---,0.00,VWS V14.01,2013-01-09 09:04:00,
2013-01-09 04:09:00,43.8,40.5,30.43,NNE,18,0.0,0.0,88,0.00,,---,0.00,VWS V14.01,2013-01-09 09:09:00,
2013-01-09 04:14:00,43.5,39.9,30.44,NNE,18,1.0,1.0,87,0.00,,---,0.00,VWS V14.01,2013-01-09 09:14:00,
2013-01-09 04:19:00,43.3,40.0,30.44,NNE,19,0.0,0.0,88,0.00,,---,0.00,VWS V14.01,2013-01-09 09:19:00,
2013-01-09 04:24:00,43.1,39.8,30.44,NNE,18,0.0,0.0,88,0.00,,---,0.00,VWS V14.01,2013-01-09 09:24:00,
2013-01-09 04:29:00,42.7,39.4,30.44,NNE,18,0.0,0.0,88,0.00,,---,0.00,VWS V14.01,2013-01-09 09:29:00,
2013-01-09 04:34:00,42.7,39.7,30.44,NNE,18,0.0,0.0,89,0.00,,---,0.00,VWS V14.01,2013-01-09 09:34:00,
2013-01-09 04:39:00,42.5,39.5,30.44,NNE,19,0.0,0.0,89,0.00,,---,0.00,VWS V14.01,2013-01-09 09:39:00,
2013-01-09 04:44:00,42.5,39.5,30.44,NNE,19,0.0,0.0,89,0.00,,---,0.00,VWS V14.01,2013-01-09 09:44:00,
2013-01-09 04:49:00,42.0,38.7,30.43,NNE,19,0.0,0.0,88,0.00,,---,0.00,VWS V14.01,2013-01-09 09:49:00,
2013-01-09 04:54:00,42.1,39.7,30.43,NNE,19,0.0,0.0,91,0.00,,---,0.00,VWS V14.01,2013-01-09 09:54:00,
2013-01-09 04:59:00,42.3,39.6,30.43,NNE,19,0.0,0.0,90,0.00,,---,0.00,VWS V14.01,2013-01-09 09:59:00,
2013-01-09 05:04:00,42.2,39.5,30.43,NNE,18,0.0,0.0,90,0.00,,---,0.00,VWS V14.01,2013-01-09 10:04:00,
2013-01-09 05:09:00,42.1,39.1,30.43,NNE,18,0.0,0.0,89,0.00,,---,0.00,VWS V14.01,2013-01-09 10:09:00,
2013-01-09 05:14:00,41.9,38.9,30.43,NNE,19,0.0,0.0,89,0.00,,---,0.00,VWS V14.01,2013-01-09 10:14:00,
2013-01-09 05:19:00,41.6,38.9,30.43,NNE,19,0.0,0.0,90,0.00,,---,0.00,VWS V14.01,2013-01-09 10:19:00,
2013-01-09 05:24:00,41.8,39.4,30.43,NNE,18,0.0,0.0,91,0.00,,---,0.00,VWS V14.01,2013-01-09 10:24:00,
2013-01-09 05:29:00,41.6,38.9,30.43,NNE,19,0.0,0.0,90,0.00,,---,0.00,VWS V14.01,2013-01-09 10:29:00,
2013-01-09 05:34:00,41.5,39.1,30.43,NNE,18,0.0,0.0,91,0.00,,---,0.00,VWS V14.01,2013-01-09 10:34:00,
2013-01-09 05:39:00,41.5,39.1,30.43,NNE,18,0.0,0.0,91,0.00,,---,0.00,VWS V14.01,2013-01-09 10:39:00,
2013-01-09 05:44:00,41.6,39.2,30.43,NW,322,1.0,1.0,91,0.00,,---,0.00,VWS V14.01,2013-01-09 10:44:00,
2013-01-09 05:49:00,41.6,39.2,30.43,NW,321,0.0,0.0,91,0.00,,---,0.00,VWS V14.01,2013-01-09 10:49:00,
2013-01-09 05:54:00,41.3,38.6,30.44,NW,322,0.0,0.0,90,0.00,,---,0.00,VWS V14.01,2013-01-09 10:54:00,
2013-01-09 05:59:00,41.4,39.2,30.44,NW,322,1.0,1.0,92,0.00,,---,0.00,VWS V14.01,2013-01-09 10:59:00,
2013-01-09 06:04:00,42.0,39.8,30.44,NW,322,1.0,1.0,92,0.00,,---,0.00,VWS V14.01,2013-01-09 11:04:00,
2013-01-09 06:09:00,42.1,39.7,30.44,NW,321,0.0,0.0,91,0.00,,---,0.00,VWS V14.01,2013-01-09 11:09:00,
2013-01-09 06:14:00,41.6,38.6,30.44,NW,322,0.0,0.0,89,0.00,,---,0.00,VWS V14.01,2013-01-09 11:14:00,
2013-01-09 06:19:00,41.4,39.0,30.44,NW,322,0.0,0.0,91,0.00,,---,0.00,VWS V14.01,2013-01-09 11:19:00,
2013-01-09 06:24:00,41.7,39.5,30.44,NW,321,0.0,0.0,92,0.00,,---,0.00,VWS V14.01,2013-01-09 11:24:00,
2013-01-09 06:29:00,42.3,40.2,30.44,NW,321,0.0,0.0,92,0.00,,---,0.00,VWS V14.01,2013-01-09 11:29:00,
2013-01-09 06:34:00,42.3,39.9,30.44,NW,322,0.0,0.0,91,0.00,,---,0.00,VWS V14.01,2013-01-09 11:34:00,
2013-01-09 06:39:00,42.2,39.8,30.44,NW,322,0.0,0.0,91,0.00,,---,0.00,VWS V14.01,2013-01-09 11:39:00,
2013-01-09 06:44:00,42.5,40.1,30.44,NW,321,0.0,0.0,91,0.00,,---,0.00,VWS V14.01,2013-01-09 11:44:00,
2013-01-09 06:49:00,42.6,40.2,30.44,NW,321,0.0,0.0,91,0.00,,---,0.00,VWS V14.01,2013-01-09 11:49:00,
2013-01-09 06:54:00,42.7,40.3,30.44,NW,322,0.0,0.0,91,0.00,,---,0.00,VWS V14.01,2013-01-09 11:54:00,
2013-01-09 06:59:00,43.0,40.6,30.44,NW,322,0.0,0.0,91,0.00,,---,0.00,VWS V14.01,2013-01-09 11:59:00,
2013-01-09 07:04:00,43.5,40.8,30.44,NW,323,0.0,0.0,90,0.00,,---,0.00,VWS V14.01,2013-01-09 12:04:00,
2013-01-09 07:09:00,43.5,40.5,30.44,NW,323,0.0,0.0,89,0.00,,---,0.00,VWS V14.01,2013-01-09 12:09:00,
2013-01-09 07:14:00,43.1,39.8,30.44,NW,323,0.0,0.0,88,0.00,,---,0.00,VWS V14.01,2013-01-09 12:14:00,
2013-01-09 07:19:00,42.8,39.8,30.45,NW,323,0.0,0.0,89,0.00,,---,0.00,VWS V14.01,2013-01-09 12:19:00,
2013-01-09 07:24:00,42.1,38.8,30.45,NW,323,0.0,0.0,88,0.00,,---,0.00,VWS V14.01,2013-01-09 12:24:00,
2013-01-09 07:29:00,41.5,38.5,30.46,NW,323,0.0,0.0,89,0.00,,---,0.00,VWS V14.01,2013-01-09 12:29:00,
2013-01-09 07:34:00,41.1,38.1,30.47,NW,323,0.0,0.0,89,0.00,,---,0.00,VWS V14.01,2013-01-09 12:34:00,
2013-01-09 07:39:00,41.2,38.5,30.47,NW,323,0.0,0.0,90,0.00,,---,0.00,VWS V14.01,2013-01-09 12:39:00,
2013-01-09 07:44:00,41.0,38.6,30.47,NW,323,0.0,0.0,91,0.00,,---,0.00,VWS V14.01,2013-01-09 12:44:00,
2013-01-09 07:49:00,40.9,38.5,30.47,NW,323,0.0,0.0,91,0.00,,---,0.00,VWS V14.01,2013-01-09 12:49:00,
2013-01-09 07:54:00,41.1,38.7,30.47,NW,323,0.0,0.0,91,0.00,,---,0.00,VWS V14.01,2013-01-09 12:54:00,
2013-01-09 07:59:00,41.0,38.3,30.46,NW,323,0.0,0.0,90,0.00,,---,0.00,VWS V14.01,2013-01-09 12:59:00,
2013-01-09 08:04:00,41.1,38.7,30.46,NW,323,0.0,0.0,91,0.00,,---,0.00,VWS V14.01,2013-01-09 13:04:00,
2013-01-09 08:09:00,41.6,39.5,30.46,NW,323,0.0,0.0,92,0.00,,---,0.00,VWS V14.01,2013-01-09 13:09:00,
2013-01-09 08:14:00,41.7,39.3,30.46,NW,323,0.0,0.0,91,0.00,,---,0.00,VWS V14.01,2013-01-09 13:14:00,
2013-01-09 08:19:00,42.1,39.7,30.47,NW,323,0.0,0.0,91,0.00,,---,0.00,VWS V14.01,2013-01-09 13:19:00,
2013-01-09 08:24:00,42.5,40.1,30.47,NW,323,0.0,0.0,91,0.00,,---,0.00,VWS V14.01,2013-01-09 13:24:00,
2013-01-09 08:29:00,43.0,40.6,30.47,NW,323,0.0,0.0,91,0.00,,---,0.00,VWS V14.01,2013-01-09 13:29:00,
2013-01-09 08:34:00,43.3,40.6,30.47,NW,322,0.0,0.0,90,0.00,,---,0.00,VWS V14.01,2013-01-09 13:34:00,
2013-01-09 08:39:00,44.0,41.3,30.47,NW,322,0.0,0.0,90,0.00,,---,0.00,VWS V14.01,2013-01-09 13:39:00,
2013-01-09 08:44:00,44.6,41.6,30.48,NW,322,0.0,0.0,89,0.00,,---,0.00,VWS V14.01,2013-01-09 13:44:00,
2013-01-09 08:49:00,45.3,42.0,30.48,NW,321,0.0,0.0,88,0.00,,---,0.00,VWS V14.01,2013-01-09 13:49:00,
2013-01-09 08:54:00,46.0,42.7,30.48,NW,322,0.0,0.0,88,0.00,,---,0.00,VWS V14.01,2013-01-09 13:54:00,
2013-01-09 08:59:00,46.9,42.9,30.48,NNW,329,1.0,1.0,86,0.00,,---,0.00,VWS V14.01,2013-01-09 13:59:00,
2013-01-09 09:04:00,47.7,43.1,30.48,NNE,26,1.0,1.0,84,0.00,,---,0.00,VWS V14.01,2013-01-09 14:04:00,
2013-01-09 09:09:00,48.5,43.3,30.48,NNE,27,1.0,1.0,82,0.00,,---,0.00,VWS V14.01,2013-01-09 14:09:00,
2013-01-09 09:14:00,49.2,43.3,30.48,NNE,27,0.0,0.0,80,0.00,,---,0.00,VWS V14.01,2013-01-09 14:14:00,
2013-01-09 09:19:00,49.6,43.4,30.48,NNE,32,1.0,1.0,79,0.00,,---,0.00,VWS V14.01,2013-01-09 14:19:00,
2013-01-09 09:24:00,50.1,43.5,30.48,NE,49,1.0,2.0,78,0.00,,---,0.00,VWS V14.01,2013-01-09 14:24:00,
2013-01-09 09:29:00,50.7,44.1,30.48,ENE,78,2.0,2.0,78,0.00,,---,0.00,VWS V14.01,2013-01-09 14:29:00,
2013-01-09 09:34:00,51.4,44.4,30.48,East,99,1.0,2.0,77,0.00,,---,0.00,VWS V14.01,2013-01-09 14:34:00,
2013-01-09 09:39:00,51.8,44.8,30.48,ENE,76,3.0,3.0,77,0.00,,---,0.00,VWS V14.01,2013-01-09 14:39:00,
2013-01-09 09:44:00,52.3,45.3,30.48,NNE,24,1.0,2.0,77,0.00,,---,0.00,VWS V14.01,2013-01-09 14:44:00,
2013-01-09 09:49:00,52.8,45.8,30.48,ENE,57,1.0,2.0,77,0.00,,---,0.00,VWS V14.01,2013-01-09 14:49:00,
2013-01-09 09:54:00,53.5,46.1,30.48,ENE,58,0.0,1.0,76,0.00,,---,0.00,VWS V14.01,2013-01-09 14:54:00,
2013-01-09 09:59:00,54.1,46.4,30.48,NNE,30,1.0,2.0,75,0.00,,---,0.00,VWS V14.01,2013-01-09 14:59:00,
2013-01-09 10:04:00,54.6,46.8,30.48,NE,50,1.0,1.0,75,0.00,,---,0.00,VWS V14.01,2013-01-09 15:04:00,
2013-01-09 10:09:00,55.0,46.9,30.48,NE,38,1.0,2.0,74,0.00,,---,0.00,VWS V14.01,2013-01-09 15:09:00,
2013-01-09 10:14:00,55.5,47.0,30.48,NNE,27,1.0,2.0,73,0.00,,---,0.00,VWS V14.01,2013-01-09 15:14:00,
2013-01-09 10:19:00,55.9,47.0,30.48,NNE,27,2.0,2.0,72,0.00,,---,0.00,VWS V14.01,2013-01-09 15:19:00,
2013-01-09 10:24:00,56.1,46.8,30.49,North,360,3.0,3.0,71,0.00,,---,0.00,VWS V14.01,2013-01-09 15:24:00,
2013-01-09 10:29:00,56.3,47.4,30.49,NNE,26,2.0,3.0,72,0.00,,---,0.00,VWS V14.01,2013-01-09 15:29:00,
2013-01-09 10:34:00,56.7,47.0,30.49,NNW,338,2.0,3.0,70,0.00,,---,0.00,VWS V14.01,2013-01-09 15:34:00,
2013-01-09 10:39:00,57.1,47.4,30.49,NE,51,2.0,2.0,70,0.00,,---,0.00,VWS V14.01,2013-01-09 15:39:00,
2013-01-09 10:44:00,57.6,47.9,30.49,West,281,0.0,1.0,70,0.00,,---,0.00,VWS V14.01,2013-01-09 15:44:00,
2013-01-09 10:49:00,58.2,48.1,30.49,NNW,344,2.0,4.0,69,0.00,,---,0.00,VWS V14.01,2013-01-09 15:49:00,
2013-01-09 10:53:00,58.8,48.7,30.49,NW,311,3.0,6.0,69,0.00,,---,0.00,VWS V14.01,2013-01-09 15:53:00,
2013-01-09 10:58:00,59.0,48.9,30.49,NNW,340,3.0,4.0,69,0.00,,---,0.00,VWS V14.01,2013-01-09 15:58:00,
2013-01-09 11:03:00,58.8,48.7,30.49,WNW,297,3.0,4.0,69,0.00,,---,0.00,VWS V14.01,2013-01-09 16:03:00,
2013-01-09 11:08:00,59.0,48.9,30.48,West,275,1.0,2.0,69,0.00,,---,0.00,VWS V14.01,2013-01-09 16:08:00,
2013-01-09 11:13:00,59.4,48.8,30.48,West,275,2.0,2.0,68,0.00,,---,0.00,VWS V14.01,2013-01-09 16:13:00,
2013-01-09 11:18:00,59.3,48.8,30.48,NE,34,3.0,3.0,68,0.00,,---,0.00,VWS V14.01,2013-01-09 16:18:00,
2013-01-09 11:23:00,59.5,49.3,30.48,West,263,3.0,3.0,69,0.00,,---,0.00,VWS V14.01,2013-01-09 16:23:00,
2013-01-09 11:28:00,59.7,49.1,30.48,NW,315,3.0,4.0,68,0.00,,---,0.00,VWS V14.01,2013-01-09 16:28:00,
2013-01-09 11:33:00,60.3,49.3,30.48,West,279,2.0,2.0,67,0.00,,---,0.00,VWS V14.01,2013-01-09 16:33:00,
2013-01-09 11:38:00,60.5,49.5,30.48,NW,321,1.0,2.0,67,0.00,,---,0.00,VWS V14.01,2013-01-09 16:38:00,
2013-01-09 11:43:00,60.9,50.3,30.48,North,360,3.0,4.0,68,0.00,,---,0.00,VWS V14.01,2013-01-09 16:43:00,
2013-01-09 11:48:00,61.1,50.5,30.47,WSW,254,4.0,6.0,68,0.00,,---,0.00,VWS V14.01,2013-01-09 16:48:00,
2013-01-09 11:53:00,61.2,50.6,30.47,West,269,2.0,3.0,68,0.00,,---,0.00,VWS V14.01,2013-01-09 16:53:00,
2013-01-09 11:58:00,61.4,50.8,30.47,West,269,5.0,5.0,68,0.00,,---,0.00,VWS V14.01,2013-01-09 16:58:00,
2013-01-09 12:03:00,61.8,51.1,30.47,WNW,291,1.0,2.0,68,0.00,,---,0.00,VWS V14.01,2013-01-09 17:03:00,
2013-01-09 12:08:00,62.0,51.3,30.46,NW,319,1.0,2.0,68,0.00,,---,0.00,VWS V14.01,2013-01-09 17:08:00,
2013-01-09 12:13:00,62.8,51.3,30.46,WNW,298,5.0,5.0,66,0.00,,---,0.00,VWS V14.01,2013-01-09 17:13:00,
2013-01-09 12:18:00,62.9,51.4,30.46,WNW,286,3.0,5.0,66,0.00,,---,0.00,VWS V14.01,2013-01-09 17:18:00,
2013-01-09 12:23:00,62.4,50.5,30.46,WNW,288,4.0,4.0,65,0.00,,---,0.00,VWS V14.01,2013-01-09 17:23:00,
2013-01-09 12:28:00,62.7,51.6,30.45,NNW,347,2.0,3.0,67,0.00,,---,0.00,VWS V14.01,2013-01-09 17:28:00,
2013-01-09 12:33:00,63.1,51.6,30.45,NNW,340,0.0,2.0,66,0.00,,---,0.00,VWS V14.01,2013-01-09 17:33:00,
2013-01-09 12:38:00,63.3,51.3,30.44,NE,34,3.0,3.0,65,0.00,,---,0.00,VWS V14.01,2013-01-09 17:38:00,
2013-01-09 12:43:00,63.6,50.8,30.44,NW,315,1.0,3.0,63,0.00,,---,0.00,VWS V14.01,2013-01-09 17:43:00,
2013-01-09 12:48:00,63.6,50.8,30.44,West,276,2.0,3.0,63,0.00,,---,0.00,VWS V14.01,2013-01-09 17:48:00,
2013-01-09 12:53:00,63.8,50.5,30.44,SW,226,3.0,4.0,62,0.00,,---,0.00,VWS V14.01,2013-01-09 17:53:00,
2013-01-09 12:58:00,63.8,49.7,30.44,West,275,4.0,5.0,60,0.00,,---,0.00,VWS V14.01,2013-01-09 17:58:00,
2013-01-09 13:03:00,64.1,50.0,30.44,SW,214,3.0,6.0,60,0.00,,---,0.00,VWS V14.01,2013-01-09 18:03:00,
2013-01-09 13:08:00,64.1,50.0,30.43,West,268,1.0,1.0,60,0.00,,---,0.00,VWS V14.01,2013-01-09 18:08:00,
2013-01-09 13:13:00,64.7,50.5,30.42,West,267,1.0,2.0,60,0.00,,---,0.00,VWS V14.01,2013-01-09 18:13:00,
2013-01-09 13:18:00,65.3,50.2,30.42,WSW,252,4.0,4.0,58,0.00,,---,0.00,VWS V14.01,2013-01-09 18:18:00,
2013-01-09 13:23:00,65.4,50.2,30.42,SW,236,0.0,1.0,58,0.00,,---,0.00,VWS V14.01,2013-01-09 18:23:00,
2013-01-09 13:28:00,66.0,50.3,30.42,SW,236,4.0,4.0,57,0.00,,---,0.00,VWS V14.01,2013-01-09 18:28:00,
2013-01-09 13:33:00,66.1,50.4,30.42,WSW,242,4.0,4.0,57,0.00,,---,0.00,VWS V14.01,2013-01-09 18:33:00,
2013-01-09 13:38:00,66.7,50.5,30.42,South,178,2.0,3.0,56,0.00,,---,0.00,VWS V14.01,2013-01-09 18:38:00,
2013-01-09 13:41:00,67.0,50.3,30.41,WSW,247,5.0,6.0,55,0.00,,---,0.00,VWS V14.01,2013-01-09 18:41:00,
2013-01-09 13:44:00,66.9,50.2,30.41,WSW,245,4.0,4.0,55,0.00,,---,0.00,VWS V14.01,2013-01-09 18:44:00,
2013-01-09 13:45:00,66.8,50.1,30.41,WSW,245,4.0,4.0,55,0.00,,---,0.00,VWS V14.01,2013-01-09 18:45:00,
2013-01-09 13:48:00,66.7,50.0,30.42,SSE,159,2.0,3.0,55,0.00,,---,0.00,VWS V14.01,2013-01-09 18:48:00,
2013-01-09 13:53:00,67.1,50.4,30.41,South,176,2.0,2.0,55,0.00,,---,0.00,VWS V14.01,2013-01-09 18:53:00,
2013-01-09 13:58:00,67.3,50.1,30.41,SSW,203,2.0,2.0,54,0.00,,---,0.00,VWS V14.01,2013-01-09 18:58:00,
2013-01-09 14:03:00,67.2,50.0,30.41,West,277,3.0,5.0,54,0.00,,---,0.00,VWS V14.01,2013-01-09 19:03:00,
2013-01-09 14:08:00,66.7,50.0,30.41,West,273,3.0,3.0,55,0.00,,---,0.00,VWS V14.01,2013-01-09 19:08:00,
2013-01-09 14:13:00,66.5,49.8,30.41,WSW,237,4.0,4.0,55,0.00,,---,0.00,VWS V14.01,2013-01-09 19:13:00,
2013-01-09 14:18:00,66.5,50.3,30.41,West,259,0.0,0.0,56,0.00,,---,0.00,VWS V14.01,2013-01-09 19:18:00,
2013-01-09 14:23:00,67.1,50.4,30.41,WSW,250,1.0,2.0,55,0.00,,---,0.00,VWS V14.01,2013-01-09 19:23:00,
2013-01-09 14:28:00,67.2,50.5,30.41,SSW,203,2.0,3.0,55,0.00,,---,0.00,VWS V14.01,2013-01-09 19:28:00,
2013-01-09 14:33:00,67.5,50.8,30.41,SSE,159,2.0,2.0,55,0.00,,---,0.00,VWS V14.01,2013-01-09 19:33:00,
2013-01-09 14:38:00,68.0,50.8,30.40,South,186,5.0,5.0,54,0.00,,---,0.00,VWS V14.01,2013-01-09 19:38:00,
2013-01-09 14:43:00,68.0,50.8,30.40,SSW,213,2.0,3.0,54,0.00,,---,0.00,VWS V14.01,2013-01-09 19:43:00,
2013-01-09 14:48:00,68.1,50.8,30.41,SE,146,1.0,1.0,54,0.00,,---,0.00,VWS V14.01,2013-01-09 19:48:00,
2013-01-09 14:53:00,67.9,50.7,30.41,WSW,257,6.0,6.0,54,0.00,,---,0.00,VWS V14.01,2013-01-09 19:53:00,
2013-01-09 14:58:00,67.6,50.4,30.41,SW,236,2.0,2.0,54,0.00,,---,0.00,VWS V14.01,2013-01-09 19:58:00,
2013-01-09 15:03:00,67.3,50.6,30.41,WSW,252,3.0,3.0,55,0.00,,---,0.00,VWS V14.01,2013-01-09 20:03:00,
2013-01-09 15:08:00,67.2,51.0,30.42,WSW,244,4.0,4.0,56,0.00,,---,0.00,VWS V14.01,2013-01-09 20:08:00,
2013-01-09 15:13:00,67.0,50.8,30.42,SSW,192,2.0,4.0,56,0.00,,---,0.00,VWS V14.01,2013-01-09 20:13:00,
2013-01-09 15:18:00,66.8,50.6,30.42,SW,233,3.0,5.0,56,0.00,,---,0.00,VWS V14.01,2013-01-09 20:18:00,
2013-01-09 15:23:00,66.7,50.5,30.42,WSW,241,3.0,4.0,56,0.00,,---,0.00,VWS V14.01,2013-01-09 20:23:00,
2013-01-09 15:28:00,66.7,51.0,30.42,WSW,256,2.0,2.0,57,0.00,,---,0.00,VWS V14.01,2013-01-09 20:28:00,
2013-01-09 15:33:00,66.6,50.9,30.42,SW,217,1.0,2.0,57,0.00,,---,0.00,VWS V14.01,2013-01-09 20:33:00,
2013-01-09 15:38:00,66.6,50.9,30.41,SW,236,1.0,2.0,57,0.00,,---,0.00,VWS V14.01,2013-01-09 20:38:00,
2013-01-09 15:43:00,66.6,50.9,30.41,SW,229,2.0,2.0,57,0.00,,---,0.00,VWS V14.01,2013-01-09 20:43:00,
2013-01-09 15:48:00,66.5,51.3,30.42,West,271,1.0,2.0,58,0.00,,---,0.00,VWS V14.01,2013-01-09 20:48:00,
2013-01-09 15:53:00,66.4,51.2,30.42,SW,229,0.0,0.0,58,0.00,,---,0.00,VWS V14.01,2013-01-09 20:53:00,
2013-01-09 15:58:00,66.4,51.2,30.42,WSW,237,0.0,0.0,58,0.00,,---,0.00,VWS V14.01,2013-01-09 20:58:00,
2013-01-09 16:03:00,66.4,51.2,30.41,WSW,238,1.0,1.0,58,0.00,,---,0.00,VWS V14.01,2013-01-09 21:03:00,
2013-01-09 16:08:00,66.3,51.1,30.41,SW,227,0.0,0.0,58,0.00,,---,0.00,VWS V14.01,2013-01-09 21:08:00,
2013-01-09 16:13:00,66.1,51.4,30.42,SW,227,0.0,0.0,59,0.00,,---,0.00,VWS V14.01,2013-01-09 21:13:00,
2013-01-09 16:18:00,66.0,51.3,30.41,SW,227,0.0,0.0,59,0.00,,---,0.00,VWS V14.01,2013-01-09 21:18:00,
2013-01-09 16:23:00,66.0,51.3,30.40,SW,227,0.0,0.0,59,0.00,,---,0.00,VWS V14.01,2013-01-09 21:23:00,
2013-01-09 16:28:00,65.7,51.5,30.41,SW,227,0.0,0.0,60,0.00,,---,0.00,VWS V14.01,2013-01-09 21:28:00,
2013-01-09 16:33:00,65.6,51.4,30.41,SW,227,0.0,0.0,60,0.00,,---,0.00,VWS V14.01,2013-01-09 21:33:00,
2013-01-09 16:38:00,65.6,51.8,30.41,SW,227,0.0,0.0,61,0.00,,---,0.00,VWS V14.01,2013-01-09 21:38:00,
2013-01-09 16:43:00,65.4,51.6,30.41,SW,227,0.0,0.0,61,0.00,,---,0.00,VWS V14.01,2013-01-09 21:43:00,
2013-01-09 16:48:00,65.2,51.9,30.41,SW,227,0.0,0.0,62,0.00,,---,0.00,VWS V14.01,2013-01-09 21:48:00,
2013-01-09 16:53:00,65.0,52.1,30.41,SW,229,0.0,0.0,63,0.00,,---,0.00,VWS V14.01,2013-01-09 21:53:00,
2013-01-09 16:58:00,64.7,51.8,30.41,SW,227,0.0,0.0,63,0.00,,---,0.00,VWS V14.01,2013-01-09 21:58:00,
2013-01-09 17:03:00,64.5,51.6,30.41,SW,227,0.0,0.0,63,0.00,,---,0.00,VWS V14.01,2013-01-09 22:03:00,
2013-01-09 17:08:00,64.3,51.9,30.41,SW,227,0.0,0.0,64,0.00,,---,0.00,VWS V14.01,2013-01-09 22:08:00,
2013-01-09 17:13:00,64.2,51.8,30.41,SW,227,0.0,0.0,64,0.00,,---,0.00,VWS V14.01,2013-01-09 22:13:00,
2013-01-09 17:18:00,64.0,51.6,30.42,SW,229,0.0,0.0,64,0.00,,---,0.00,VWS V14.01,2013-01-09 22:18:00,
2013-01-09 17:23:00,63.9,51.5,30.41,SW,229,0.0,0.0,64,0.00,,---,0.00,VWS V14.01,2013-01-09 22:23:00,
2013-01-09 17:28:00,63.7,51.7,30.42,SW,227,0.0,0.0,65,0.00,,---,0.00,VWS V14.01,2013-01-09 22:28:00,
2013-01-09 17:33:00,63.5,51.5,30.42,SW,229,0.0,0.0,65,0.00,,---,0.00,VWS V14.01,2013-01-09 22:33:00,
2013-01-09 17:38:00,63.4,51.9,30.42,SW,229,0.0,0.0,66,0.00,,---,0.00,VWS V14.01,2013-01-09 22:38:00,
2013-01-09 17:43:00,63.1,52.0,30.42,SW,229,0.0,0.0,67,0.00,,---,0.00,VWS V14.01,2013-01-09 22:43:00,
2013-01-09 17:48:00,62.9,51.8,30.42,SW,229,0.0,0.0,67,0.00,,---,0.00,VWS V14.01,2013-01-09 22:48:00,
2013-01-09 17:53:00,62.7,52.0,30.42,SW,229,0.0,0.0,68,0.00,,---,0.00,VWS V14.01,2013-01-09 22:53:00,
2013-01-09 17:58:00,62.7,52.0,30.42,SW,227,0.0,0.0,68,0.00,,---,0.00,VWS V14.01,2013-01-09 22:58:00,
2013-01-09 18:03:00,62.7,52.0,30.42,SW,227,0.0,0.0,68,0.00,,---,0.00,VWS V14.01,2013-01-09 23:03:00,
2013-01-09 18:08:00,62.4,51.7,30.42,SW,227,0.0,0.0,68,0.00,,---,0.00,VWS V14.01,2013-01-09 23:08:00,
2013-01-09 18:13:00,62.0,51.7,30.42,SW,227,0.0,0.0,69,0.00,,---,0.00,VWS V14.01,2013-01-09 23:13:00,
2013-01-09 18:18:00,61.5,51.6,30.42,SW,227,0.0,0.0,70,0.00,,---,0.00,VWS V14.01,2013-01-09 23:18:00,
2013-01-09 18:23:00,61.3,51.8,30.42,SW,227,0.0,0.0,71,0.00,,---,0.00,VWS V14.01,2013-01-09 23:23:00,
2013-01-09 18:28:00,61.4,51.5,30.42,SSW,211,1.0,1.0,70,0.00,,---,0.00,VWS V14.01,2013-01-09 23:28:00,
2013-01-09 18:33:00,61.5,51.6,30.42,SSW,210,0.0,1.0,70,0.00,,---,0.00,VWS V14.01,2013-01-09 23:33:00,
2013-01-09 18:38:00,61.6,51.7,30.42,SSW,202,2.0,2.0,70,0.00,,---,0.00,VWS V14.01,2013-01-09 23:38:00,
2013-01-09 18:43:00,61.5,51.6,30.42,SSW,213,1.0,1.0,70,0.00,,---,0.00,VWS V14.01,2013-01-09 23:43:00,
2013-01-09 18:48:00,61.6,51.7,30.41,SSW,199,2.0,3.0,70,0.00,,---,0.00,VWS V14.01,2013-01-09 23:48:00,
2013-01-09 18:53:00,61.6,51.7,30.40,South,191,0.0,0.0,70,0.00,,---,0.00,VWS V14.01,2013-01-09 23:53:00,
2013-01-09 18:58:00,61.5,51.6,30.40,SE,144,0.0,0.0,70,0.00,,---,0.00,VWS V14.01,2013-01-09 23:58:00,
2013-01-09 19:03:00,61.5,51.6,30.41,SSW,213,2.0,2.0,70,0.00,,---,0.00,VWS V14.01,2013-01-10 00:03:00,
2013-01-09 19:08:00,61.4,51.9,30.41,SW,233,1.0,2.0,71,0.00,,---,0.00,VWS V14.01,2013-01-10 00:08:00,
2013-01-09 19:13:00,61.3,51.8,30.41,SW,219,3.0,3.0,71,0.00,,---,0.00,VWS V14.01,2013-01-10 00:13:00,
2013-01-09 19:18:00,61.3,51.8,30.40,SW,236,1.0,3.0,71,0.00,,---,0.00,VWS V14.01,2013-01-10 00:18:00,
2013-01-09 19:23:00,61.1,51.6,30.40,SSW,202,1.0,1.0,71,0.00,,---,0.00,VWS V14.01,2013-01-10 00:23:00,
2013-01-09 19:28:00,60.9,51.8,30.40,South,183,3.0,3.0,72,0.00,,---,0.00,VWS V14.01,2013-01-10 00:28:00,
2013-01-09 19:33:00,60.8,51.7,30.40,SW,219,1.0,2.0,72,0.00,,---,0.00,VWS V14.01,2013-01-10 00:33:00,
2013-01-09 19:38:00,60.6,51.9,30.41,SW,229,1.0,1.0,73,0.00,,---,0.00,VWS V14.01,2013-01-10 00:38:00,
2013-01-09 19:43:00,60.5,51.8,30.41,SW,221,1.0,2.0,73,0.00,,---,0.00,VWS V14.01,2013-01-10 00:43:00,
2013-01-09 19:48:00,60.3,51.6,30.41,SSW,206,0.0,0.0,73,0.00,,---,0.00,VWS V14.01,2013-01-10 00:48:00,
2013-01-09 19:53:00,59.9,51.6,30.41,SSW,206,0.0,0.0,74,0.00,,---,0.00,VWS V14.01,2013-01-10 00:53:00,
2013-01-09 19:58:00,59.5,51.2,30.42,SSW,206,0.0,0.0,74,0.00,,---,0.00,VWS V14.01,2013-01-10 00:58:00,
2013-01-09 20:03:00,59.1,51.5,30.42,SSW,206,0.0,0.0,76,0.00,,---,0.00,VWS V14.01,2013-01-10 01:03:00,
2013-01-09 20:08:00,59.1,51.5,30.42,SSW,206,0.0,0.0,76,0.00,,---,0.00,VWS V14.01,2013-01-10 01:08:00,
2013-01-09 20:13:00,58.9,51.4,30.42,SSW,206,0.0,0.0,76,0.00,,---,0.00,VWS V14.01,2013-01-10 01:13:00,
2013-01-09 20:18:00,58.7,51.2,30.42,SSW,206,0.0,0.0,76,0.00,,---,0.00,VWS V14.01,2013-01-10 01:18:00,
2013-01-09 20:23:00,58.3,51.1,30.42,SSW,207,0.0,0.0,77,0.00,,---,0.00,VWS V14.01,2013-01-10 01:23:00,
2013-01-09 20:28:00,58.1,51.3,30.42,SSW,206,0.0,0.0,78,0.00,,---,0.00,VWS V14.01,2013-01-10 01:28:00,
2013-01-09 20:33:00,57.9,51.1,30.42,SSW,206,0.0,0.0,78,0.00,,---,0.00,VWS V14.01,2013-01-10 01:33:00,
2013-01-09 20:38:00,57.8,51.0,30.42,SSW,206,0.0,0.0,78,0.00,,---,0.00,VWS V14.01,2013-01-10 01:38:00,
2013-01-09 20:43:00,57.4,51.0,30.42,SSW,206,0.0,0.0,79,0.00,,---,0.00,VWS V14.01,2013-01-10 01:43:00,
2013-01-09 20:48:00,57.4,51.3,30.43,SSW,206,0.0,0.0,80,0.00,,---,0.00,VWS V14.01,2013-01-10 01:48:00,
2013-01-09 20:53:00,57.7,51.2,30.43,SSW,206,0.0,0.0,79,0.00,,---,0.00,VWS V14.01,2013-01-10 01:53:00,
2013-01-09 20:58:00,57.7,51.2,30.43,SSW,206,0.0,0.0,79,0.00,,---,0.00,VWS V14.01,2013-01-10 01:58:00,
2013-01-09 21:03:00,57.4,51.0,30.43,SSW,206,0.0,0.0,79,0.00,,---,0.00,VWS V14.01,2013-01-10 02:03:00,
2013-01-09 21:08:00,57.1,51.0,30.43,SSW,206,0.0,0.0,80,0.00,,---,0.00,VWS V14.01,2013-01-10 02:08:00,
2013-01-09 21:13:00,56.8,50.7,30.43,SSW,206,0.0,0.0,80,0.00,,---,0.00,VWS V14.01,2013-01-10 02:13:00,
2013-01-09 21:18:00,56.1,50.4,30.43,SSW,206,0.0,0.0,81,0.00,,---,0.00,VWS V14.01,2013-01-10 02:18:00,
2013-01-09 21:23:00,55.5,50.1,30.43,SSW,206,0.0,0.0,82,0.00,,---,0.00,VWS V14.01,2013-01-10 02:23:00,
2013-01-09 21:28:00,55.6,50.8,30.43,SSW,206,0.0,0.0,84,0.00,,---,0.00,VWS V14.01,2013-01-10 02:28:00,
2013-01-09 21:33:00,56.3,51.2,30.43,SSW,206,0.0,0.0,83,0.00,,---,0.00,VWS V14.01,2013-01-10 02:33:00,
2013-01-09 21:38:00,57.0,51.2,30.43,West,271,0.0,1.0,81,0.00,,---,0.00,VWS V14.01,2013-01-10 02:38:00,
2013-01-09 21:43:00,57.4,51.3,30.43,West,271,0.0,0.0,80,0.00,,---,0.00,VWS V14.01,2013-01-10 02:43:00,
2013-01-09 21:48:00,57.5,51.4,30.43,WSW,245,0.0,0.0,80,0.00,,---,0.00,VWS V14.01,2013-01-10 02:48:00,
2013-01-09 21:53:00,57.5,51.0,30.43,WSW,241,0.0,0.0,79,0.00,,---,0.00,VWS V14.01,2013-01-10 02:53:00,
2013-01-09 21:58:00,57.3,51.2,30.43,WSW,241,0.0,0.0,80,0.00,,---,0.00,VWS V14.01,2013-01-10 02:58:00,
2013-01-09 22:02:00,57.3,51.2,30.44,WSW,242,0.0,0.0,80,0.00,,---,0.00,VWS V14.01,2013-01-10 03:02:00,
2013-01-09 22:07:00,57.2,50.8,30.44,NW,319,0.0,1.0,79,0.00,,---,0.00,VWS V14.01,2013-01-10 03:07:00,
2013-01-09 22:12:00,57.2,50.8,30.44,NW,319,0.0,1.0,79,0.00,,---,0.00,VWS V14.01,2013-01-10 03:12:00,
2013-01-09 22:17:00,56.7,50.6,30.45,NW,319,1.0,1.0,80,0.00,,---,0.00,VWS V14.01,2013-01-10 03:17:00,
2013-01-09 22:22:00,56.3,50.5,30.44,NW,319,0.0,1.0,81,0.00,,---,0.00,VWS V14.01,2013-01-10 03:22:00,
2013-01-09 22:27:00,56.2,50.8,30.45,NW,319,0.0,0.0,82,0.00,,---,0.00,VWS V14.01,2013-01-10 03:27:00,
2013-01-09 22:32:00,56.3,50.9,30.45,NW,319,0.0,0.0,82,0.00,,---,0.00,VWS V14.01,2013-01-10 03:32:00,
2013-01-09 22:37:00,56.4,50.7,30.45,NW,319,0.0,0.0,81,0.00,,---,0.00,VWS V14.01,2013-01-10 03:37:00,
2013-01-09 22:42:00,56.5,50.8,30.45,NW,319,0.0,0.0,81,0.00,,---,0.00,VWS V14.01,2013-01-10 03:42:00,
2013-01-09 22:47:00,56.5,50.8,30.45,NW,319,0.0,0.0,81,0.00,,---,0.00,VWS V14.01,2013-01-10 03:47:00,
2013-01-09 22:52:00,56.3,50.5,30.45,NW,319,0.0,0.0,81,0.00,,---,0.00,VWS V14.01,2013-01-10 03:52:00,
2013-01-09 22:57:00,56.0,50.6,30.45,NW,319,0.0,0.0,82,0.00,,---,0.00,VWS V14.01,2013-01-10 03:57:00,
2013-01-09 23:02:00,55.8,50.4,30.45,NW,319,0.0,0.0,82,0.00,,---,0.00,VWS V14.01,2013-01-10 04:02:00,
2013-01-09 23:07:00,55.7,50.6,30.45,NW,319,0.0,0.0,83,0.00,,---,0.00,VWS V14.01,2013-01-10 04:07:00,
2013-01-09 23:12:00,56.0,50.9,30.45,NW,317,0.0,0.0,83,0.00,,---,0.00,VWS V14.01,2013-01-10 04:12:00,
2013-01-09 23:17:00,56.2,50.8,30.46,NW,317,0.0,0.0,82,0.00,,---,0.00,VWS V14.01,2013-01-10 04:17:00,
2013-01-09 23:22:00,56.1,50.7,30.46,NW,318,0.0,0.0,82,0.00,,---,0.00,VWS V14.01,2013-01-10 04:22:00,
2013-01-09 23:27:00,56.2,50.8,30.46,NW,318,0.0,0.0,82,0.00,,---,0.00,VWS V14.01,2013-01-10 04:27:00,
2013-01-09 23:32:00,56.3,50.9,30.46,SW,220,0.0,0.0,82,0.00,,---,0.00,VWS V14.01,2013-01-10 04:32:00,
2013-01-09 23:37:00,56.2,50.8,30.46,SW,229,0.0,0.0,82,0.00,,---,0.00,VWS V14.01,2013-01-10 04:37:00,
2013-01-09 23:42:00,56.5,50.8,30.46,SW,229,0.0,0.0,81,0.00,,---,0.00,VWS V14.01,2013-01-10 04:42:00,
2013-01-09 23:47:00,56.8,50.7,30.45,SW,229,0.0,0.0,80,0.00,,---,0.00,VWS V14.01,2013-01-10 04:47:00,
2013-01-09 23:52:00,56.9,50.8,30.45,SW,228,0.0,0.0,80,0.00,,---,0.00,VWS V14.01,2013-01-10 04:52:00,
2013-01-09 23:57:00,56.9,50.8,30.45,SW,229,0.0,0.0,80,0.00,,---,0.00,VWS V14.01,2013-01-10 04:57:00,